createdAt,value
2022-08-17T00:02:25.513Z,6.85
2022-08-17T00:04:55.618Z,7.30
2022-08-17T00:07:23.325Z,7.03
2022-08-17T00:09:50.430Z,7.85
2022-08-17T00:12:43.611Z,12.27
2022-08-17T00:15:10.606Z,10.35
2022-08-17T00:17:38.315Z,11.20
2022-08-17T00:20:06.308Z,9.90
2022-08-17T00:22:46.686Z,8.32
2022-08-17T00:25:17.300Z,9.13
2022-08-17T00:27:44.370Z,8.55
2022-08-17T00:30:12.624Z,5.88
2022-08-17T00:33:12.286Z,5.88
2022-08-17T00:35:33.528Z,9.70
2022-08-17T00:38:00.572Z,6.65
2022-08-17T00:40:27.604Z,6.75
2022-08-17T00:43:20.868Z,6.38
2022-08-17T00:45:49.284Z,8.15
2022-08-17T00:48:29.517Z,6.75
2022-08-17T00:51:06.736Z,6.10
2022-08-17T00:53:38.641Z,8.30
2022-08-17T00:56:10.754Z,9.70
2022-08-17T00:58:38.491Z,6.97
2022-08-17T01:01:08.538Z,8.60
2022-08-17T01:03:38.057Z,9.02
2022-08-17T01:06:06.572Z,17.55
2022-08-17T01:08:35.384Z,12.25
2022-08-17T01:11:03.067Z,10.32
2022-08-17T01:13:41.431Z,15.18
2022-08-17T01:16:17.074Z,9.95
2022-08-17T01:18:47.018Z,7.25
2022-08-17T01:21:40.264Z,7.95
2022-08-17T01:24:08.363Z,9.02
2022-08-17T01:26:36.839Z,9.45
2022-08-17T01:29:05.211Z,5.72
2022-08-17T01:31:39.373Z,7.78
2022-08-17T01:34:10.556Z,6.43
2022-08-17T01:36:40.075Z,12.57
2022-08-17T01:39:12.094Z,13.43
2022-08-17T01:41:40.985Z,23.58
2022-08-17T01:44:08.428Z,22.73
2022-08-17T01:46:37.136Z,23.52
2022-08-17T01:49:10.616Z,27.83
2022-08-17T01:51:39.073Z,27.00
2022-08-17T01:54:10.608Z,32.30
2022-08-17T01:56:44.292Z,19.88
2022-08-17T01:59:16.084Z,14.98
2022-08-17T02:01:43.499Z,20.00
2022-08-17T02:04:11.905Z,13.13
2022-08-17T02:06:45.268Z,17.08
2022-08-17T02:09:23.273Z,14.00
2022-08-17T02:11:54.705Z,12.50
2022-08-17T02:14:23.393Z,20.02
2022-08-17T02:16:50.722Z,23.23
2022-08-17T02:19:18.168Z,17.20
2022-08-17T02:21:48.349Z,15.52
2022-08-17T02:24:58.741Z,7.60
2022-08-17T02:27:10.166Z,8.20
2022-08-17T02:29:37.741Z,9.93
2022-08-17T02:32:05.191Z,7.68
2022-08-17T02:34:32.636Z,7.53
2022-08-17T02:36:59.668Z,7.25
2022-08-17T02:39:26.795Z,11.93
2022-08-17T02:42:01.902Z,7.25
2022-08-17T02:44:40.010Z,10.00
2022-08-17T02:47:09.377Z,7.65
2022-08-17T02:49:37.121Z,12.05
2022-08-17T02:52:06.606Z,12.82
2022-08-17T02:54:40.017Z,7.97
2022-08-17T02:57:10.241Z,9.70
2022-08-17T02:59:39.243Z,8.10
2022-08-17T03:02:08.071Z,11.90
2022-08-17T03:04:35.633Z,10.25
2022-08-17T03:07:04.958Z,5.68
2022-08-17T03:09:32.742Z,10.90
2022-08-17T03:12:08.412Z,7.95
2022-08-17T03:14:41.716Z,8.38
2022-08-17T03:17:10.180Z,11.77
2022-08-17T03:19:42.893Z,14.60
2022-08-17T03:24:58.076Z,10.48
2022-08-17T03:27:25.213Z,8.95
2022-08-17T03:29:52.237Z,12.52
2022-08-17T03:32:20.571Z,11.50
2022-08-17T03:34:47.903Z,12.60
2022-08-17T03:37:15.273Z,12.85
2022-08-17T03:39:42.831Z,12.50
2022-08-17T03:42:32.247Z,9.52
2022-08-17T03:45:02.001Z,10.70
2022-08-17T03:47:47.951Z,9.63
2022-08-17T03:50:35.308Z,9.30
2022-08-17T03:53:27.742Z,13.18
2022-08-17T03:56:17.494Z,9.20
2022-08-17T03:58:45.794Z,10.35
2022-08-17T04:01:13.919Z,8.63
2022-08-17T04:03:40.998Z,8.57
2022-08-17T04:06:08.055Z,10.27
2022-08-17T04:08:35.608Z,9.70
2022-08-17T04:11:02.884Z,7.85
2022-08-17T04:13:29.902Z,12.40
2022-08-17T04:15:59.119Z,10.75
2022-08-17T04:18:26.182Z,12.27
2022-08-17T04:20:53.732Z,12.30
2022-08-17T04:23:20.875Z,14.65
2022-08-17T04:25:50.085Z,13.48
2022-08-17T04:28:19.442Z,9.27
2022-08-17T04:30:47.854Z,14.80
2022-08-17T04:33:26.547Z,10.70
2022-08-17T04:35:56.384Z,11.70
2022-08-17T04:38:26.738Z,8.80
2022-08-17T04:41:13.099Z,12.48
2022-08-17T04:43:42.327Z,11.60
2022-08-17T04:46:27.025Z,10.18
2022-08-17T04:48:57.086Z,8.18
2022-08-17T04:51:39.852Z,12.93
2022-08-17T04:54:21.011Z,10.18
2022-08-17T04:56:48.102Z,10.98
2022-08-17T04:59:21.532Z,10.20
2022-08-17T05:01:51.645Z,9.07
2022-08-17T05:04:33.966Z,10.95
2022-08-17T05:07:04.474Z,16.13
2022-08-17T05:09:32.217Z,12.10
2022-08-17T05:12:03.054Z,9.73
2022-08-17T05:14:33.000Z,12.00
2022-08-17T05:17:01.478Z,11.02
2022-08-17T05:19:31.190Z,9.90
2022-08-17T05:21:58.259Z,8.70
2022-08-17T05:24:41.251Z,17.83
2022-08-17T05:27:10.944Z,13.43
2022-08-17T05:29:46.074Z,13.30
2022-08-17T05:32:38.357Z,11.68
2022-08-17T05:35:01.493Z,8.68
2022-08-17T05:37:28.599Z,14.98
2022-08-17T05:39:55.664Z,11.77
2022-08-17T05:42:23.030Z,9.52
2022-08-17T05:44:50.192Z,10.77
2022-08-17T05:47:18.292Z,11.48
2022-08-17T05:49:45.591Z,13.85
2022-08-17T05:52:37.997Z,13.07
2022-08-17T05:55:19.054Z,12.45
2022-08-17T05:57:55.917Z,12.15
2022-08-17T06:00:52.828Z,9.85
2022-08-17T06:03:49.270Z,12.40
2022-08-17T06:06:34.469Z,10.13
2022-08-17T06:09:08.673Z,8.70
2022-08-17T06:11:41.585Z,7.07
2022-08-17T06:14:14.430Z,8.75
2022-08-17T06:16:46.231Z,11.27
2022-08-17T06:19:21.583Z,12.80
2022-08-17T06:21:52.823Z,19.80
2022-08-17T06:24:37.515Z,14.77
2022-08-17T06:27:12.659Z,17.92
2022-08-17T06:30:00.174Z,14.38
2022-08-17T06:32:28.410Z,13.60
2022-08-17T06:34:55.689Z,14.07
2022-08-17T06:37:45.538Z,14.57
2022-08-17T06:40:45.458Z,11.48
2022-08-17T06:43:54.193Z,14.20
2022-08-17T06:46:36.339Z,11.38
2022-08-17T06:49:19.709Z,10.25
2022-08-17T06:51:58.044Z,12.90
2022-08-17T06:54:55.359Z,12.77
2022-08-17T06:57:28.269Z,11.07
2022-08-17T07:00:02.388Z,9.95
2022-08-17T07:03:00.675Z,12.93
2022-08-17T07:05:32.931Z,21.35
2022-08-17T07:08:18.563Z,13.15
2022-08-17T07:10:54.523Z,12.50
2022-08-17T07:13:33.165Z,11.48
2022-08-17T07:16:30.736Z,14.13
2022-08-17T07:18:59.327Z,17.38
2022-08-17T07:21:40.709Z,11.48
2022-08-17T07:24:30.558Z,11.55
2022-08-17T07:27:24.002Z,13.23
2022-08-17T07:30:10.269Z,11.35
2022-08-17T07:32:50.814Z,12.55
2022-08-17T07:35:37.635Z,12.52
2022-08-17T07:38:28.154Z,24.80
2022-08-17T07:41:01.829Z,17.25
2022-08-17T07:43:41.239Z,27.17
2022-08-17T07:46:29.765Z,38.53
2022-08-17T07:49:16.686Z,36.75
2022-08-17T07:51:43.812Z,30.98
2022-08-17T07:54:22.083Z,43.83
2022-08-17T07:56:50.668Z,39.90
2022-08-17T07:59:27.269Z,16.65
2022-08-17T08:02:02.301Z,12.25
2022-08-17T08:04:59.679Z,10.48
2022-08-17T08:07:37.193Z,9.23
2022-08-17T08:10:25.492Z,9.27
2022-08-17T08:13:22.972Z,8.55
2022-08-17T08:15:54.024Z,7.40
2022-08-17T08:18:54.423Z,11.25
2022-08-17T08:22:03.106Z,4.43
2022-08-17T08:24:52.010Z,6.35
2022-08-17T08:27:34.175Z,6.85
2022-08-17T08:30:21.269Z,6.75
2022-08-17T08:32:57.700Z,3.75
2022-08-17T08:35:30.907Z,8.95
2022-08-17T08:38:16.436Z,7.95
2022-08-17T08:41:16.352Z,16.67
2022-08-17T08:44:00.662Z,11.85
2022-08-17T08:46:59.805Z,8.50
2022-08-17T08:50:37.445Z,4.85
2022-08-17T08:53:18.853Z,7.88
2022-08-17T08:56:06.496Z,8.70
2022-08-17T08:58:44.975Z,6.18
2022-08-17T09:01:44.770Z,4.40
2022-08-17T09:05:02.616Z,4.18
2022-08-17T09:07:37.319Z,7.63
2022-08-17T09:10:39.429Z,5.57
2022-08-17T09:13:21.995Z,2.90
2022-08-17T09:15:58.983Z,5.57
2022-08-17T09:19:02.354Z,5.15
2022-08-17T09:21:33.683Z,7.57
2022-08-17T09:24:20.777Z,9.50
2022-08-17T09:26:54.360Z,5.63
2022-08-17T09:29:25.398Z,8.93
2022-08-17T09:32:03.800Z,7.80
2022-08-17T09:34:44.639Z,11.20
2022-08-17T09:37:54.084Z,5.65
2022-08-17T09:40:30.802Z,8.65
2022-08-17T09:43:30.473Z,9.93
2022-08-17T09:46:09.078Z,4.45
2022-08-17T09:48:41.947Z,3.85
2022-08-17T09:51:40.110Z,4.15
2022-08-17T09:54:38.142Z,5.22
2022-08-17T09:57:32.475Z,7.97
2022-08-17T10:00:16.929Z,3.33
2022-08-17T10:03:41.240Z,11.02
2022-08-17T10:06:21.794Z,3.47
2022-08-17T10:09:08.708Z,5.47
2022-08-17T10:12:11.133Z,6.65
2022-08-17T10:14:43.467Z,7.10
2022-08-17T10:17:26.215Z,6.22
2022-08-17T10:20:11.270Z,2.90
2022-08-17T10:23:19.685Z,4.70
2022-08-17T10:26:14.127Z,4.55
2022-08-17T10:28:58.633Z,5.53
2022-08-17T10:31:46.375Z,11.63
2022-08-17T10:34:44.467Z,8.50
2022-08-17T10:37:49.621Z,9.57
2022-08-17T10:40:45.409Z,6.85
2022-08-17T10:43:29.115Z,5.85
2022-08-17T10:46:30.090Z,7.55
2022-08-17T10:49:16.682Z,6.53
2022-08-17T10:51:47.765Z,4.88
2022-08-17T10:54:38.787Z,9.50
2022-08-17T10:57:31.593Z,11.18
2022-08-17T11:02:27.382Z,18.08
2022-08-17T11:05:00.180Z,9.57
2022-08-17T11:07:48.825Z,17.48
2022-08-17T11:10:37.492Z,4.43
2022-08-17T11:13:23.105Z,11.27
2022-08-17T11:16:08.786Z,10.27
2022-08-17T11:19:17.228Z,5.60
2022-08-17T11:21:56.582Z,3.97
2022-08-17T11:24:38.983Z,8.38
2022-08-17T11:27:29.042Z,5.00
2022-08-17T11:30:02.080Z,4.25
2022-08-17T11:32:58.325Z,5.05
2022-08-17T11:35:38.679Z,15.98
2022-08-17T11:38:25.713Z,3.85
2022-08-17T11:41:27.326Z,32.05
2022-08-17T11:44:18.481Z,7.80
2022-08-17T11:47:36.617Z,13.15
2022-08-17T11:50:46.347Z,9.43
2022-08-17T11:53:38.495Z,5.22
2022-08-17T11:56:11.944Z,16.15
2022-08-17T11:58:44.018Z,6.40
2022-08-17T12:01:13.723Z,4.25
2022-08-17T12:03:54.289Z,4.05
2022-08-17T12:06:31.782Z,12.93
2022-08-17T12:09:18.984Z,10.38
2022-08-17T12:11:58.664Z,11.00
2022-08-17T12:15:08.979Z,10.07
2022-08-17T12:17:52.274Z,10.85
2022-08-17T12:20:37.093Z,5.45
2022-08-17T12:23:44.174Z,7.72
2022-08-17T12:26:19.752Z,4.30
2022-08-17T12:28:49.808Z,4.82
2022-08-17T12:31:24.606Z,8.57
2022-08-17T12:33:52.520Z,3.72
2022-08-17T12:36:24.671Z,3.03
2022-08-17T12:39:13.756Z,3.58
2022-08-17T12:41:46.759Z,2.53
2022-08-17T12:44:50.446Z,5.22
2022-08-17T12:47:22.627Z,6.80
2022-08-17T12:52:24.961Z,4.60
2022-08-17T12:55:06.790Z,3.85
2022-08-17T12:57:47.460Z,3.53
2022-08-17T13:00:23.219Z,5.53
2022-08-17T13:03:13.607Z,4.28
2022-08-17T13:05:53.791Z,5.47
2022-08-17T13:08:28.818Z,2.97
2022-08-17T13:11:10.066Z,9.02
2022-08-17T13:13:41.313Z,2.22
2022-08-17T13:16:11.336Z,4.85
2022-08-17T13:18:47.913Z,8.05
2022-08-17T13:21:26.662Z,3.38
2022-08-17T13:24:01.480Z,7.43
2022-08-17T13:26:37.599Z,5.03
2022-08-17T13:29:07.958Z,6.97
2022-08-17T13:31:51.993Z,6.85
2022-08-17T13:34:25.417Z,3.38
2022-08-17T13:37:18.354Z,3.03
2022-08-17T13:39:48.300Z,5.95
2022-08-17T13:42:50.411Z,5.25
2022-08-17T13:45:34.848Z,11.90
2022-08-17T13:48:15.717Z,4.45
2022-08-17T13:50:54.676Z,3.13
2022-08-17T13:53:27.540Z,2.72
2022-08-17T13:55:58.950Z,3.47
2022-08-17T13:58:38.035Z,2.87
2022-08-17T14:01:28.723Z,2.83
2022-08-17T14:03:57.283Z,4.07
2022-08-17T14:06:52.504Z,2.63
2022-08-17T14:09:24.094Z,3.53
2022-08-17T14:11:51.598Z,10.50
2022-08-17T14:14:18.946Z,7.78
2022-08-17T14:16:46.002Z,2.63
2022-08-17T14:19:14.348Z,2.65
2022-08-17T14:21:44.107Z,4.45
2022-08-17T14:24:21.096Z,4.15
2022-08-17T14:26:49.392Z,4.25
2022-08-17T14:29:16.746Z,3.75
2022-08-17T14:31:48.526Z,5.65
2022-08-17T14:34:25.002Z,4.53
2022-08-17T14:36:52.376Z,2.65
2022-08-17T14:39:20.016Z,2.15
2022-08-17T14:41:47.831Z,6.47
2022-08-17T14:44:15.225Z,2.17
2022-08-17T14:46:44.516Z,2.28
2022-08-17T14:49:12.823Z,2.50
2022-08-17T14:51:44.392Z,3.13
2022-08-17T14:54:32.830Z,2.80
2022-08-17T14:57:22.531Z,7.00
2022-08-17T14:59:53.234Z,6.22
2022-08-17T15:02:29.297Z,8.40
2022-08-17T15:05:05.948Z,4.70
2022-08-17T15:07:33.009Z,4.70
2022-08-17T15:10:01.431Z,5.05
2022-08-17T15:12:33.299Z,2.40
2022-08-17T15:17:44.333Z,8.95
2022-08-17T15:20:17.347Z,3.38
2022-08-17T15:22:46.204Z,4.68
2022-08-17T15:25:13.751Z,9.75
2022-08-17T15:27:41.421Z,3.03
2022-08-17T15:30:10.011Z,6.43
2022-08-17T15:32:40.472Z,4.47
2022-08-17T15:35:11.364Z,2.65
2022-08-17T15:37:40.240Z,3.15
2022-08-17T15:40:09.883Z,7.18
2022-08-17T15:42:38.468Z,4.40
2022-08-17T15:45:09.855Z,7.55
2022-08-17T15:47:37.691Z,5.50
2022-08-17T15:50:07.070Z,8.32
2022-08-17T15:52:39.942Z,5.35
2022-08-17T15:55:11.804Z,4.57
2022-08-17T15:57:39.262Z,3.50
2022-08-17T16:00:08.652Z,5.10
2022-08-17T16:03:46.978Z,11.45
2022-08-17T16:05:31.895Z,5.43
2022-08-17T16:07:59.720Z,7.65
2022-08-17T16:10:35.729Z,3.47
2022-08-17T16:13:04.478Z,6.43
2022-08-17T16:15:32.123Z,4.68
2022-08-17T16:17:59.550Z,4.30
2022-08-17T16:20:27.059Z,7.00
2022-08-17T16:22:54.991Z,4.03
2022-08-17T16:25:52.411Z,7.32
2022-08-17T16:28:17.199Z,15.57
2022-08-17T16:30:44.827Z,7.72
2022-08-17T16:33:12.277Z,8.63
2022-08-17T16:35:39.498Z,13.60
2022-08-17T16:38:07.046Z,4.05
2022-08-17T16:40:36.161Z,5.10
2022-08-17T16:43:09.135Z,8.27
2022-08-17T16:45:40.216Z,5.50
2022-08-17T16:48:08.993Z,5.95
2022-08-17T16:50:36.713Z,3.03
2022-08-17T16:53:10.515Z,8.77
2022-08-17T16:55:38.360Z,5.55
2022-08-17T16:58:06.431Z,5.75
2022-08-17T17:00:33.948Z,3.17
2022-08-17T17:03:18.931Z,4.20
2022-08-17T17:06:13.572Z,6.47
2022-08-17T17:08:46.614Z,10.23
2022-08-17T17:11:33.664Z,8.23
2022-08-17T17:14:15.214Z,8.38
2022-08-17T17:17:18.803Z,10.70
2022-08-17T17:19:56.746Z,8.73
2022-08-17T17:22:41.062Z,12.80
2022-08-17T17:25:17.517Z,10.77
2022-08-17T17:27:57.094Z,8.75
2022-08-17T17:30:47.248Z,12.65
2022-08-17T17:33:19.610Z,9.70
2022-08-17T17:36:08.047Z,8.27
2022-08-17T17:38:48.945Z,12.93
2022-08-17T17:41:26.464Z,8.07
2022-08-17T17:44:08.019Z,10.77
2022-08-17T17:46:50.819Z,16.05
2022-08-17T17:49:18.610Z,14.13
2022-08-17T17:52:14.335Z,9.63
2022-08-17T17:55:24.778Z,17.92
2022-08-17T17:58:16.583Z,9.07
2022-08-17T18:01:15.586Z,10.23
2022-08-17T18:04:03.109Z,13.10
2022-08-17T18:10:29.807Z,12.70
2022-08-17T18:13:09.804Z,8.88
2022-08-17T18:15:51.252Z,14.43
2022-08-17T18:18:18.329Z,12.35
2022-08-17T18:20:56.259Z,11.63
2022-08-17T18:23:28.311Z,33.97
2022-08-17T18:25:58.475Z,13.15
2022-08-17T18:28:31.518Z,12.70
2022-08-17T18:31:20.939Z,8.68
2022-08-17T18:33:51.551Z,11.35
2022-08-17T18:36:36.425Z,17.13
2022-08-17T18:39:15.242Z,9.60
2022-08-17T18:41:45.648Z,11.93
2022-08-17T18:44:31.104Z,12.77
2022-08-17T18:47:16.451Z,10.98
2022-08-17T18:49:46.709Z,11.73
2022-08-17T18:52:22.018Z,13.00
2022-08-17T18:55:16.247Z,21.05
2022-08-17T18:57:51.303Z,14.68
2022-08-17T19:00:21.247Z,9.52
2022-08-17T19:02:54.669Z,11.98
2022-08-17T19:05:37.701Z,15.18
2022-08-17T19:08:20.082Z,14.90
2022-08-17T19:10:55.612Z,10.52
2022-08-17T19:13:29.387Z,13.90
2022-08-17T19:16:11.610Z,12.10
2022-08-17T19:19:21.013Z,22.08
2022-08-17T19:21:53.134Z,14.10
2022-08-17T19:24:23.594Z,11.13
2022-08-17T19:27:06.212Z,12.65
2022-08-17T19:29:55.558Z,11.30
2022-08-17T19:32:27.096Z,20.73
2022-08-17T19:34:55.872Z,18.08
2022-08-17T19:37:28.632Z,14.00
2022-08-17T19:40:01.621Z,14.40
2022-08-17T19:42:51.553Z,18.20
2022-08-17T19:46:05.794Z,10.75
2022-08-17T19:49:11.276Z,12.30
2022-08-17T19:51:41.471Z,12.95
2022-08-17T19:54:38.087Z,11.82
2022-08-17T19:57:20.682Z,13.00
2022-08-17T20:00:00.486Z,11.48
2022-08-17T20:02:30.386Z,11.48
2022-08-17T20:05:01.937Z,19.88
2022-08-17T20:07:43.385Z,14.73
2022-08-17T20:10:20.534Z,16.65
2022-08-17T20:12:51.682Z,14.60
2022-08-17T20:15:29.568Z,12.25
2022-08-17T20:18:00.206Z,16.02
2022-08-17T20:20:49.113Z,10.70
2022-08-17T20:23:43.336Z,15.82
2022-08-17T20:26:26.276Z,9.55
2022-08-17T20:29:15.122Z,14.52
2022-08-17T20:31:42.249Z,13.32
2022-08-17T20:34:33.748Z,17.00
2022-08-17T20:37:07.237Z,14.75
2022-08-17T20:39:40.544Z,12.70
2022-08-17T20:42:27.813Z,13.82
2022-08-17T20:44:58.210Z,14.38
2022-08-17T20:48:00.946Z,11.88
2022-08-17T20:50:38.979Z,12.55
2022-08-17T20:53:09.979Z,10.80
2022-08-17T20:55:51.990Z,18.13
2022-08-17T21:00:56.213Z,16.63
2022-08-17T21:03:23.946Z,16.75
2022-08-17T21:06:00.737Z,12.73
2022-08-17T21:08:33.841Z,11.45
2022-08-17T21:11:57.001Z,12.43
2022-08-17T21:14:33.567Z,19.98
2022-08-17T21:17:06.683Z,13.32
2022-08-17T21:20:13.546Z,11.98
2022-08-17T21:22:48.759Z,15.27
2022-08-17T21:25:37.075Z,11.68
2022-08-17T21:28:20.527Z,11.25
2022-08-17T21:30:56.391Z,13.48
2022-08-17T21:33:37.605Z,20.42
2022-08-17T21:36:11.513Z,17.85
2022-08-17T21:38:47.441Z,15.40
2022-08-17T21:41:27.263Z,19.05
2022-08-17T21:44:02.729Z,17.38
2022-08-17T21:46:36.753Z,21.42
2022-08-17T21:49:13.590Z,12.82
2022-08-17T21:51:49.871Z,14.30
2022-08-17T21:54:36.789Z,14.60
2022-08-17T21:57:18.022Z,22.77
2022-08-17T21:59:45.180Z,14.68
2022-08-17T22:02:21.261Z,13.63
2022-08-17T22:05:00.434Z,12.88
2022-08-17T22:08:02.294Z,17.75
2022-08-17T22:10:43.665Z,18.77
2022-08-17T22:13:19.782Z,17.10
2022-08-17T22:16:15.335Z,16.63
2022-08-17T22:18:58.657Z,12.23
2022-08-17T22:21:26.074Z,13.40
2022-08-17T22:24:06.109Z,11.65
2022-08-17T22:27:12.880Z,15.77
2022-08-17T22:29:57.179Z,19.90
2022-08-17T22:32:41.562Z,16.77
2022-08-17T22:35:37.759Z,18.30
2022-08-17T22:38:19.826Z,13.45
2022-08-17T22:40:49.902Z,21.85
2022-08-17T22:43:21.175Z,16.45
2022-08-17T22:45:57.188Z,18.58
2022-08-17T22:48:27.478Z,15.13
2022-08-17T22:51:13.804Z,14.27
2022-08-17T22:54:14.872Z,15.25
2022-08-17T22:57:18.690Z,12.65
2022-08-17T22:59:55.014Z,14.02
2022-08-17T23:02:28.551Z,16.00
2022-08-17T23:05:18.859Z,15.02
2022-08-17T23:07:47.194Z,15.75
2022-08-17T23:10:14.749Z,12.70
2022-08-17T23:12:42.097Z,15.85
2022-08-17T23:15:14.275Z,15.15
2022-08-17T23:17:42.038Z,15.90
2022-08-17T23:20:12.914Z,17.88
2022-08-17T23:22:51.911Z,12.43
2022-08-17T23:25:28.908Z,16.65
2022-08-17T23:27:57.533Z,16.02
2022-08-17T23:30:25.535Z,19.17
2022-08-17T23:32:54.244Z,16.35
2022-08-17T23:35:39.074Z,17.45
2022-08-17T23:38:10.000Z,16.80
2022-08-17T23:40:39.349Z,14.15
2022-08-17T23:43:17.542Z,22.73
2022-08-17T23:45:54.192Z,15.80
2022-08-17T23:48:36.159Z,17.50
2022-08-17T23:53:40.140Z,14.57
2022-08-17T23:56:11.066Z,16.00
2022-08-17T23:58:42.119Z,15.73
